13°C Temp
9°C Dewpoint
% Humidity
Temperature
13 KM/H
8 MPH
7 KTS
100°
Due East

Wind Speed
Clear
Conditions
Pressure 1015.92 (hPa) - 30 (in)
Visibility 6.2 (mi) - 10.0 (km)

Current Conditions
YPPH
Location 20(km)
Metar :YPPH 271900Z 10007KT CAVOK 13/09 Q1016
Tue 28th September 03:00 am

Airport
  Metar Aviation API Data Provided by https://www.checkwx.com/ PHP scripts by weather34.com ©2021